sensor_id;sensor_type;location;lat;lon;timestamp;pressure;altitude;pressure_sealevel;temperature;humidity
59767;BME280;46248;58.364;25.582;2023-02-21T00:03:25;97770.13;;;-4.17;100.00
59767;BME280;46248;58.364;25.582;2023-02-21T00:07:10;97782.09;;;-4.19;100.00
59767;BME280;46248;58.364;25.582;2023-02-21T00:10:51;97788.88;;;-4.18;100.00
59767;BME280;46248;58.364;25.582;2023-02-21T00:14:36;97801.66;;;-4.18;100.00
59767;BME280;46248;58.364;25.582;2023-02-21T00:18:16;97793.94;;;-4.16;100.00
59767;BME280;46248;58.364;25.582;2023-02-21T00:21:57;97804.31;;;-4.21;99.95
59767;BME280;46248;58.364;25.582;2023-02-21T00:25:38;97807.84;;;-4.23;100.00
59767;BME280;46248;58.364;25.582;2023-02-21T00:29:18;97824.84;;;-4.24;100.00
59767;BME280;46248;58.364;25.582;2023-02-21T00:33:00;97830.84;;;-4.25;100.00
59767;BME280;46248;58.364;25.582;2023-02-21T00:36:41;97849.53;;;-4.23;100.00
59767;BME280;46248;58.364;25.582;2023-02-21T00:40:22;97845.47;;;-4.28;100.00
59767;BME280;46248;58.364;25.582;2023-02-21T00:44:04;97859.88;;;-4.26;100.00
59767;BME280;46248;58.364;25.582;2023-02-21T00:47:45;97858.25;;;-4.28;100.00
59767;BME280;46248;58.364;25.582;2023-02-21T00:51:27;97863.38;;;-4.30;100.00
59767;BME280;46248;58.364;25.582;2023-02-21T00:55:07;97877.06;;;-4.31;100.00
59767;BME280;46248;58.364;25.582;2023-02-21T00:58:48;97872.16;;;-4.37;100.00
59767;BME280;46248;58.364;25.582;2023-02-21T01:02:30;97891.56;;;-4.31;99.93
59767;BME280;46248;58.364;25.582;2023-02-21T01:06:11;97888.28;;;-4.35;99.95
59767;BME280;46248;58.364;25.582;2023-02-21T01:09:54;97894.22;;;-4.34;99.52
59767;BME280;46248;58.364;25.582;2023-02-21T01:13:35;97899.31;;;-4.34;99.82
59767;BME280;46248;58.364;25.582;2023-02-21T01:17:16;97907.19;;;-4.41;99.54
59767;BME280;46248;58.364;25.582;2023-02-21T01:20:57;97927.56;;;-4.39;99.58
59767;BME280;46248;58.364;25.582;2023-02-21T01:24:38;97936.91;;;-4.38;99.64
59767;BME280;46248;58.364;25.582;2023-02-21T01:28:20;97934.38;;;-4.40;99.46
59767;BME280;46248;58.364;25.582;2023-02-21T01:32:00;97954.00;;;-4.40;99.66
59767;BME280;46248;58.364;25.582;2023-02-21T01:35:41;97942.25;;;-4.46;99.79
59767;BME280;46248;58.364;25.582;2023-02-21T01:39:22;97950.53;;;-4.39;100.00
59767;BME280;46248;58.364;25.582;2023-02-21T01:43:13;97965.75;;;-4.34;99.71
59767;BME280;46248;58.364;25.582;2023-02-21T01:46:54;97971.78;;;-4.37;99.46
59767;BME280;46248;58.364;25.582;2023-02-21T01:50:34;97976.06;;;-4.38;99.74
59767;BME280;46248;58.364;25.582;2023-02-21T01:54:15;97994.13;;;-4.44;99.59
59767;BME280;46248;58.364;25.582;2023-02-21T01:57:57;97981.38;;;-4.45;99.48
59767;BME280;46248;58.364;25.582;2023-02-21T02:01:43;97990.78;;;-4.46;99.57
59767;BME280;46248;58.364;25.582;2023-02-21T02:05:27;98001.72;;;-4.42;100.00
59767;BME280;46248;58.364;25.582;2023-02-21T02:09:16;98002.94;;;-4.54;99.60
59767;BME280;46248;58.364;25.582;2023-02-21T02:16:44;98019.03;;;-4.50;100.00
59767;BME280;46248;58.364;25.582;2023-02-21T02:20:39;98015.06;;;-4.61;99.66
59767;BME280;46248;58.364;25.582;2023-02-21T02:24:24;98024.31;;;-4.56;99.56
59767;BME280;46248;58.364;25.582;2023-02-21T02:31:58;98060.25;;;-4.63;99.72
59767;BME280;46248;58.364;25.582;2023-02-21T02:35:30;98070.50;;;-4.64;99.44
59767;BME280;46248;58.364;25.582;2023-02-21T02:39:03;98063.00;;;-4.69;99.52
59767;BME280;46248;58.364;25.582;2023-02-21T02:42:43;98088.38;;;-4.64;99.41
59767;BME280;46248;58.364;25.582;2023-02-21T02:46:13;98097.84;;;-4.68;99.02
59767;BME280;46248;58.364;25.582;2023-02-21T02:49:43;98102.94;;;-4.68;99.03
59767;BME280;46248;58.364;25.582;2023-02-21T02:53:11;98098.03;;;-4.74;98.77
59767;BME280;46248;58.364;25.582;2023-02-21T02:56:35;98104.22;;;-4.82;98.63
59767;BME280;46248;58.364;25.582;2023-02-21T02:59:58;98122.88;;;-4.80;98.43
59767;BME280;46248;58.364;25.582;2023-02-21T03:03:53;98124.69;;;-4.84;98.47
59767;BME280;46248;58.364;25.582;2023-02-21T03:07:27;98137.47;;;-4.84;98.45
59767;BME280;46248;58.364;25.582;2023-02-21T03:11:06;98148.59;;;-4.87;98.06
59767;BME280;46248;58.364;25.582;2023-02-21T03:14:37;98156.69;;;-5.03;97.77
59767;BME280;46248;58.364;25.582;2023-02-21T03:18:07;98174.34;;;-4.96;97.76
59767;BME280;46248;58.364;25.582;2023-02-21T03:21:36;98176.19;;;-5.01;97.85
59767;BME280;46248;58.364;25.582;2023-02-21T03:25:03;98194.06;;;-5.02;97.75
59767;BME280;46248;58.364;25.582;2023-02-21T03:28:30;98201.78;;;-5.04;97.50
59767;BME280;46248;58.364;25.582;2023-02-21T03:31:59;98213.81;;;-5.09;97.65
59767;BME280;46248;58.364;25.582;2023-02-21T03:35:31;98210.63;;;-5.17;97.02
59767;BME280;46248;58.364;25.582;2023-02-21T03:38:54;98231.88;;;-5.17;97.73
59767;BME280;46248;58.364;25.582;2023-02-21T03:42:17;98243.09;;;-5.24;97.61
59767;BME280;46248;58.364;25.582;2023-02-21T03:45:42;98263.41;;;-5.19;98.13
59767;BME280;46248;58.364;25.582;2023-02-21T03:49:06;98269.47;;;-5.25;97.19
59767;BME280;46248;58.364;25.582;2023-02-21T03:52:30;98272.97;;;-5.29;97.34
59767;BME280;46248;58.364;25.582;2023-02-21T03:55:55;98287.50;;;-5.33;96.93
59767;BME280;46248;58.364;25.582;2023-02-21T03:59:19;98287.53;;;-5.34;97.47
59767;BME280;46248;58.364;25.582;2023-02-21T04:02:45;98300.53;;;-5.45;96.49
59767;BME280;46248;58.364;25.582;2023-02-21T04:06:08;98302.16;;;-5.41;97.28
59767;BME280;46248;58.364;25.582;2023-02-21T04:09:32;98318.44;;;-5.48;96.94
59767;BME280;46248;58.364;25.582;2023-02-21T04:12:56;98330.47;;;-5.53;96.66
59767;BME280;46248;58.364;25.582;2023-02-21T04:16:20;98337.25;;;-5.52;96.78
59767;BME280;46248;58.364;25.582;2023-02-21T04:19:46;98350.75;;;-5.48;96.80
59767;BME280;46248;58.364;25.582;2023-02-21T04:23:10;98368.63;;;-5.48;97.08
59767;BME280;46248;58.364;25.582;2023-02-21T04:26:34;98363.69;;;-5.56;95.84
59767;BME280;46248;58.364;25.582;2023-02-21T04:30:00;98378.22;;;-5.61;96.21
59767;BME280;46248;58.364;25.582;2023-02-21T04:33:25;98379.19;;;-5.67;96.21
59767;BME280;46248;58.364;25.582;2023-02-21T04:36:51;98392.81;;;-5.68;96.05
59767;BME280;46248;58.364;25.582;2023-02-21T04:40:14;98419.97;;;-5.65;96.04
59767;BME280;46248;58.364;25.582;2023-02-21T04:43:40;98408.97;;;-5.69;96.65
59767;BME280;46248;58.364;25.582;2023-02-21T04:47:05;98404.16;;;-5.84;95.72
59767;BME280;46248;58.364;25.582;2023-02-21T04:50:29;98425.44;;;-5.85;94.84
59767;BME280;46248;58.364;25.582;2023-02-21T04:53:55;98448.44;;;-5.88;95.41
59767;BME280;46248;58.364;25.582;2023-02-21T04:57:18;98451.13;;;-5.94;95.33
59767;BME280;46248;58.364;25.582;2023-02-21T05:00:42;98457.97;;;-5.98;95.23
59767;BME280;46248;58.364;25.582;2023-02-21T05:04:07;98467.41;;;-6.02;95.02
59767;BME280;46248;58.364;25.582;2023-02-21T05:07:30;98488.56;;;-5.98;95.93
59767;BME280;46248;58.364;25.582;2023-02-21T05:10:56;98497.16;;;-6.04;96.04
59767;BME280;46248;58.364;25.582;2023-02-21T05:14:19;98487.09;;;-6.13;96.35
59767;BME280;46248;58.364;25.582;2023-02-21T05:17:43;98522.72;;;-6.11;95.21
59767;BME280;46248;58.364;25.582;2023-02-21T05:21:07;98528.84;;;-6.22;95.53
59767;BME280;46248;58.364;25.582;2023-02-21T05:24:55;98546.69;;;-6.22;95.42
59767;BME280;46248;58.364;25.582;2023-02-21T05:28:20;98558.59;;;-6.24;95.45
59767;BME280;46248;58.364;25.582;2023-02-21T05:31:43;98559.50;;;-6.28;96.09
59767;BME280;46248;58.364;25.582;2023-02-21T05:35:08;98573.22;;;-6.35;95.04
59767;BME280;46248;58.364;25.582;2023-02-21T05:38:37;98586.81;;;-6.37;95.72
59767;BME280;46248;58.364;25.582;2023-02-21T05:42:06;98596.13;;;-6.35;96.23
59767;BME280;46248;58.364;25.582;2023-02-21T05:45:32;98619.03;;;-6.35;95.99
59767;BME280;46248;58.364;25.582;2023-02-21T05:48:56;98628.41;;;-6.37;95.72
59767;BME280;46248;58.364;25.582;2023-02-21T05:52:20;98637.72;;;-6.34;95.43
59767;BME280;46248;58.364;25.582;2023-02-21T05:55:44;98639.41;;;-6.35;95.78
59767;BME280;46248;58.364;25.582;2023-02-21T05:59:07;98646.16;;;-6.31;95.64
59767;BME280;46248;58.364;25.582;2023-02-21T06:02:32;98648.78;;;-6.37;94.90
59767;BME280;46248;58.364;25.582;2023-02-21T06:05:56;98651.31;;;-6.35;94.22
59767;BME280;46248;58.364;25.582;2023-02-21T06:09:20;98664.00;;;-6.34;95.29
59767;BME280;46248;58.364;25.582;2023-02-21T06:12:44;98657.28;;;-6.39;95.15
59767;BME280;46248;58.364;25.582;2023-02-21T06:16:07;98679.25;;;-6.29;94.97
59767;BME280;46248;58.364;25.582;2023-02-21T06:19:32;98683.44;;;-6.27;94.63
59767;BME280;46248;58.364;25.582;2023-02-21T06:22:55;98690.19;;;-6.24;94.22
59767;BME280;46248;58.364;25.582;2023-02-21T06:26:20;98715.59;;;-6.16;94.42
59767;BME280;46248;58.364;25.582;2023-02-21T06:29:44;98722.31;;;-6.12;94.26
59767;BME280;46248;58.364;25.582;2023-02-21T06:33:08;98696.09;;;-6.19;94.41
59767;BME280;46248;58.364;25.582;2023-02-21T06:36:34;98740.91;;;-6.04;94.28
59767;BME280;46248;58.364;25.582;2023-02-21T06:39:59;98733.31;;;-6.09;93.92
59767;BME280;46248;58.364;25.582;2023-02-21T06:43:23;98752.72;;;-5.98;93.63
59767;BME280;46248;58.364;25.582;2023-02-21T06:46:48;98768.81;;;-5.96;93.52
59767;BME280;46248;58.364;25.582;2023-02-21T06:50:12;98777.22;;;-5.91;93.56
59767;BME280;46248;58.364;25.582;2023-02-21T06:53:37;98783.97;;;-5.87;94.05
59767;BME280;46248;58.364;25.582;2023-02-21T06:57:01;98779.66;;;-5.81;93.11
59767;BME280;46248;58.364;25.582;2023-02-21T07:00:24;98792.28;;;-5.71;93.12
59767;BME280;46248;58.364;25.582;2023-02-21T07:03:47;98792.25;;;-5.68;92.58
59767;BME280;46248;58.364;25.582;2023-02-21T07:07:11;98813.44;;;-5.66;92.54
59767;BME280;46248;58.364;25.582;2023-02-21T07:10:36;98818.44;;;-5.60;92.72
59767;BME280;46248;58.364;25.582;2023-02-21T07:14:01;98836.25;;;-5.56;91.55
59767;BME280;46248;58.364;25.582;2023-02-21T07:17:26;98824.47;;;-5.64;91.40
59767;BME280;46248;58.364;25.582;2023-02-21T07:20:51;98852.31;;;-5.47;92.04
59767;BME280;46248;58.364;25.582;2023-02-21T07:24:15;98848.75;;;-5.39;91.05
59767;BME280;46248;58.364;25.582;2023-02-21T07:27:40;98867.50;;;-5.38;90.27
59767;BME280;46248;58.364;25.582;2023-02-21T07:31:05;98869.13;;;-5.34;90.87
59767;BME280;46248;58.364;25.582;2023-02-21T07:34:30;98876.75;;;-5.33;90.59
59767;BME280;46248;58.364;25.582;2023-02-21T07:37:54;98887.78;;;-5.31;90.70
59767;BME280;46248;58.364;25.582;2023-02-21T07:41:19;98889.44;;;-5.28;90.07
59767;BME280;46248;58.364;25.582;2023-02-21T07:44:45;98897.97;;;-5.31;90.73
59767;BME280;46248;58.364;25.582;2023-02-21T07:48:09;98909.78;;;-5.22;89.60
59767;BME280;46248;58.364;25.582;2023-02-21T07:51:35;98923.22;;;-5.09;90.81
59767;BME280;46248;58.364;25.582;2023-02-21T07:54:59;98928.41;;;-5.15;89.84
59767;BME280;46248;58.364;25.582;2023-02-21T07:58:24;98944.50;;;-5.10;89.59
59767;BME280;46248;58.364;25.582;2023-02-21T08:01:49;98957.19;;;-5.04;89.76
59767;BME280;46248;58.364;25.582;2023-02-21T08:05:15;98959.59;;;-4.95;89.84
59767;BME280;46248;58.364;25.582;2023-02-21T08:08:40;98973.91;;;-4.83;88.94
59767;BME280;46248;58.364;25.582;2023-02-21T08:12:06;98984.88;;;-4.76;88.05
59767;BME280;46248;58.364;25.582;2023-02-21T08:15:31;98995.00;;;-4.70;88.81
59767;BME280;46248;58.364;25.582;2023-02-21T08:18:57;99005.97;;;-4.62;87.81
59767;BME280;46248;58.364;25.582;2023-02-21T08:22:21;99000.88;;;-4.64;87.82
59767;BME280;46248;58.364;25.582;2023-02-21T08:25:46;99020.38;;;-4.56;87.63
59767;BME280;46248;58.364;25.582;2023-02-21T08:29:11;99013.53;;;-4.56;88.41
59767;BME280;46248;58.364;25.582;2023-02-21T08:32:36;99036.31;;;-4.41;87.36
59767;BME280;46248;58.364;25.582;2023-02-21T08:36:01;99045.56;;;-4.32;87.40
59767;BME280;46248;58.364;25.582;2023-02-21T08:39:26;99057.38;;;-4.23;87.09
59767;BME280;46248;58.364;25.582;2023-02-21T08:42:54;99066.81;;;-4.28;85.85
59767;BME280;46248;58.364;25.582;2023-02-21T08:46:18;99076.97;;;-4.27;86.09
59767;BME280;46248;58.364;25.582;2023-02-21T08:49:44;99071.03;;;-4.27;86.44
59767;BME280;46248;58.364;25.582;2023-02-21T08:53:12;99090.34;;;-4.08;85.94
59767;BME280;46248;58.364;25.582;2023-02-21T08:56:38;99097.09;;;-4.04;86.31
59767;BME280;46248;58.364;25.582;2023-02-21T09:00:03;99097.81;;;-3.94;86.98
59767;BME280;46248;58.364;25.582;2023-02-21T09:03:33;99115.59;;;-3.88;86.50
59767;BME280;46248;58.364;25.582;2023-02-21T09:06:57;99123.28;;;-3.88;85.63
59767;BME280;46248;58.364;25.582;2023-02-21T09:10:25;99137.00;;;-3.92;86.41
59767;BME280;46248;58.364;25.582;2023-02-21T09:13:50;99146.25;;;-3.83;84.11
59767;BME280;46248;58.364;25.582;2023-02-21T09:17:17;99156.47;;;-3.83;83.63
59767;BME280;46248;58.364;25.582;2023-02-21T09:20:43;99159.84;;;-3.81;83.72
59767;BME280;46248;58.364;25.582;2023-02-21T09:24:13;99159.03;;;-3.85;83.81
59767;BME280;46248;58.364;25.582;2023-02-21T09:27:41;99172.69;;;-3.86;83.97
59767;BME280;46248;58.364;25.582;2023-02-21T09:31:07;99187.97;;;-3.81;83.65
59767;BME280;46248;58.364;25.582;2023-02-21T09:34:34;99192.31;;;-3.86;82.77
59767;BME280;46248;58.364;25.582;2023-02-21T09:38:01;99154.41;;;-4.19;83.77
59767;BME280;46248;58.364;25.582;2023-02-21T09:41:30;99192.38;;;-3.89;84.90
59767;BME280;46248;58.364;25.582;2023-02-21T09:44:58;99197.44;;;-3.86;83.18
59767;BME280;46248;58.364;25.582;2023-02-21T09:48:28;99211.97;;;-3.90;82.14
59767;BME280;46248;58.364;25.582;2023-02-21T09:51:54;99209.47;;;-3.95;83.28
59767;BME280;46248;58.364;25.582;2023-02-21T09:55:27;99233.91;;;-3.75;83.22
59767;BME280;46248;58.364;25.582;2023-02-21T09:58:54;99239.94;;;-3.79;82.29
59767;BME280;46248;58.364;25.582;2023-02-21T10:02:35;99244.34;;;-3.89;82.67
59767;BME280;46248;58.364;25.582;2023-02-21T10:06:10;99255.50;;;-3.93;82.38
59767;BME280;46248;58.364;25.582;2023-02-21T10:09:44;99256.44;;;-4.02;82.12
59767;BME280;46248;58.364;25.582;2023-02-21T10:13:21;99273.41;;;-3.93;82.61
59767;BME280;46248;58.364;25.582;2023-02-21T10:16:54;99286.13;;;-3.90;83.00
59767;BME280;46248;58.364;25.582;2023-02-21T10:20:28;99285.16;;;-3.80;84.54
59767;BME280;46248;58.364;25.582;2023-02-21T10:23:58;99296.94;;;-3.70;84.92
59767;BME280;46248;58.364;25.582;2023-02-21T10:27:26;99301.22;;;-3.70;83.49
59767;BME280;46248;58.364;25.582;2023-02-21T10:30:57;99314.03;;;-3.73;82.78
59767;BME280;46248;58.364;25.582;2023-02-21T10:34:26;99320.78;;;-3.67;83.08
59767;BME280;46248;58.364;25.582;2023-02-21T10:37:56;99323.44;;;-3.74;82.39
59767;BME280;46248;58.364;25.582;2023-02-21T10:41:27;99332.09;;;-3.84;83.47
59767;BME280;46248;58.364;25.582;2023-02-21T10:44:55;99345.88;;;-3.96;83.78
59767;BME280;46248;58.364;25.582;2023-02-21T10:48:24;99347.53;;;-3.93;84.46
59767;BME280;46248;58.364;25.582;2023-02-21T10:52:04;99364.38;;;-3.75;85.72
59767;BME280;46248;58.364;25.582;2023-02-21T10:55:33;99366.06;;;-3.74;82.77
59767;BME280;46248;58.364;25.582;2023-02-21T10:59:00;99377.22;;;-3.80;83.51
59767;BME280;46248;58.364;25.582;2023-02-21T11:02:33;99377.25;;;-3.84;83.50
59767;BME280;46248;58.364;25.582;2023-02-21T11:06:02;99401.09;;;-3.78;83.95
59767;BME280;46248;58.364;25.582;2023-02-21T11:09:37;99414.84;;;-3.89;82.71
59767;BME280;46248;58.364;25.582;2023-02-21T11:13:14;99404.66;;;-3.93;84.82
59767;BME280;46248;58.364;25.582;2023-02-21T11:16:41;99415.53;;;-3.75;83.69
59767;BME280;46248;58.364;25.582;2023-02-21T11:20:17;99437.69;;;-3.76;81.96
59767;BME280;46248;58.364;25.582;2023-02-21T11:23:55;99425.91;;;-3.89;82.50
59767;BME280;46248;58.364;25.582;2023-02-21T11:27:25;99442.94;;;-3.88;83.23
59767;BME280;46248;58.364;25.582;2023-02-21T11:31:06;99460.97;;;-4.00;81.08
59767;BME280;46248;58.364;25.582;2023-02-21T11:34:33;99471.13;;;-3.94;82.37
59767;BME280;46248;58.364;25.582;2023-02-21T11:38:00;99477.16;;;-3.98;82.72
59767;BME280;46248;58.364;25.582;2023-02-21T11:41:30;99481.38;;;-3.96;83.48
59767;BME280;46248;58.364;25.582;2023-02-21T11:45:12;99494.06;;;-3.83;83.53
59767;BME280;46248;58.364;25.582;2023-02-21T11:48:51;99511.03;;;-3.76;84.18
59767;BME280;46248;58.364;25.582;2023-02-21T11:52:23;99516.13;;;-3.72;83.76
59767;BME280;46248;58.364;25.582;2023-02-21T11:55:58;99522.09;;;-3.76;83.07
59767;BME280;46248;58.364;25.582;2023-02-21T11:59:34;99518.78;;;-3.81;83.77
59767;BME280;46248;58.364;25.582;2023-02-21T12:03:18;99524.84;;;-3.93;83.21
59767;BME280;46248;58.364;25.582;2023-02-21T12:06:56;99540.19;;;-3.96;82.72
59767;BME280;46248;58.364;25.582;2023-02-21T12:10:39;99553.00;;;-3.96;83.13
59767;BME280;46248;58.364;25.582;2023-02-21T12:14:15;99562.38;;;-3.98;83.28
59767;BME280;46248;58.364;25.582;2023-02-21T12:18:00;99564.91;;;-3.95;83.71
59767;BME280;46248;58.364;25.582;2023-02-21T12:21:52;99569.16;;;-3.97;84.07
59767;BME280;46248;58.364;25.582;2023-02-21T12:25:31;99574.31;;;-3.98;83.23
59767;BME280;46248;58.364;25.582;2023-02-21T12:29:08;99587.06;;;-3.95;83.73
59767;BME280;46248;58.364;25.582;2023-02-21T12:32:48;99587.13;;;-4.01;82.46
59767;BME280;46248;58.364;25.582;2023-02-21T12:40:23;99607.47;;;-3.87;85.61
59767;BME280;46248;58.364;25.582;2023-02-21T12:43:56;99618.50;;;-3.79;84.67
59767;BME280;46248;58.364;25.582;2023-02-21T12:47:29;99622.75;;;-3.78;83.93
59767;BME280;46248;58.364;25.582;2023-02-21T12:51:00;99625.25;;;-3.71;84.27
59767;BME280;46248;58.364;25.582;2023-02-21T12:54:39;99631.19;;;-3.67;82.37
59767;BME280;46248;58.364;25.582;2023-02-21T12:58:17;99628.63;;;-3.65;84.14
59767;BME280;46248;58.364;25.582;2023-02-21T13:01:49;99642.22;;;-3.60;83.13
59767;BME280;46248;58.364;25.582;2023-02-21T13:05:20;99645.63;;;-3.58;84.23
59767;BME280;46248;58.364;25.582;2023-02-21T13:08:59;99649.94;;;-3.66;83.22
59767;BME280;46248;58.364;25.582;2023-02-21T13:12:32;99655.91;;;-3.63;83.84
59767;BME280;46248;58.364;25.582;2023-02-21T13:16:04;99661.00;;;-3.61;84.88
59767;BME280;46248;58.364;25.582;2023-02-21T13:19:39;99664.44;;;-3.67;83.99
59767;BME280;46248;58.364;25.582;2023-02-21T13:27:13;99676.34;;;-3.61;84.03
59767;BME280;46248;58.364;25.582;2023-02-21T13:30:49;99685.75;;;-3.63;83.87
59767;BME280;46248;58.364;25.582;2023-02-21T13:34:26;99693.44;;;-3.66;84.49
59767;BME280;46248;58.364;25.582;2023-02-21T13:37:54;99696.88;;;-3.67;85.16
59767;BME280;46248;58.364;25.582;2023-02-21T13:41:24;99701.97;;;-3.63;85.95
59767;BME280;46248;58.364;25.582;2023-02-21T13:45:08;99707.03;;;-3.58;86.09
59767;BME280;46248;58.364;25.582;2023-02-21T13:48:38;99712.13;;;-3.55;86.09
59767;BME280;46248;58.364;25.582;2023-02-21T13:56:19;99734.38;;;-3.66;87.19
59767;BME280;46248;58.364;25.582;2023-02-21T13:59:44;99736.94;;;-3.70;86.73
59767;BME280;46248;58.364;25.582;2023-02-21T14:03:30;99742.94;;;-3.69;87.40
59767;BME280;46248;58.364;25.582;2023-02-21T14:06:56;99746.34;;;-3.73;87.34
59767;BME280;46248;58.364;25.582;2023-02-21T14:10:30;99762.59;;;-3.77;87.62
59767;BME280;46248;58.364;25.582;2023-02-21T14:14:02;99771.16;;;-3.87;87.02
59767;BME280;46248;58.364;25.582;2023-02-21T14:17:29;99776.25;;;-3.87;86.81
59767;BME280;46248;58.364;25.582;2023-02-21T14:20:57;99772.88;;;-3.91;87.78
59767;BME280;46248;58.364;25.582;2023-02-21T14:24:25;99790.75;;;-3.80;87.63
59767;BME280;46248;58.364;25.582;2023-02-21T14:27:56;99797.59;;;-3.84;85.07
59767;BME280;46248;58.364;25.582;2023-02-21T14:31:47;99808.69;;;-3.89;86.42
59767;BME280;46248;58.364;25.582;2023-02-21T14:35:24;99807.84;;;-3.98;86.53
59767;BME280;46248;58.364;25.582;2023-02-21T14:38:52;99817.25;;;-4.09;84.59
59767;BME280;46248;58.364;25.582;2023-02-21T14:42:35;99813.91;;;-4.25;85.91
59767;BME280;46248;58.364;25.582;2023-02-21T14:50:24;99837.78;;;-4.32;87.10
59767;BME280;46248;58.364;25.582;2023-02-21T14:58:26;99847.19;;;-4.52;86.16
59767;BME280;46248;58.364;25.582;2023-02-21T15:02:09;99856.53;;;-4.67;86.65
59767;BME280;46248;58.364;25.582;2023-02-21T15:05:44;99862.50;;;-4.71;87.67
59767;BME280;46248;58.364;25.582;2023-02-21T15:09:17;99875.28;;;-4.74;88.14
59767;BME280;46248;58.364;25.582;2023-02-21T15:12:46;99879.53;;;-4.82;89.40
59767;BME280;46248;58.364;25.582;2023-02-21T15:16:13;99875.25;;;-4.94;89.95
59767;BME280;46248;58.364;25.582;2023-02-21T15:19:39;99881.19;;;-4.96;90.13
59767;BME280;46248;58.364;25.582;2023-02-21T15:23:14;99904.19;;;-4.90;90.39
59767;BME280;46248;58.364;25.582;2023-02-21T15:26:42;99908.44;;;-4.97;90.69
59767;BME280;46248;58.364;25.582;2023-02-21T15:30:17;99912.69;;;-5.03;91.32
59767;BME280;46248;58.364;25.582;2023-02-21T15:33:44;99931.41;;;-5.00;90.45
59767;BME280;46248;58.364;25.582;2023-02-21T15:37:16;99922.91;;;-5.03;91.06
59767;BME280;46248;58.364;25.582;2023-02-21T15:40:46;99945.03;;;-4.98;91.27
59767;BME280;46248;58.364;25.582;2023-02-21T15:44:16;99952.69;;;-5.01;90.92
59767;BME280;46248;58.364;25.582;2023-02-21T15:47:44;99958.63;;;-5.08;89.40
59767;BME280;46248;58.364;25.582;2023-02-21T15:51:11;99973.06;;;-5.13;89.95
59767;BME280;46248;58.364;25.582;2023-02-21T15:54:37;99979.03;;;-5.17;90.50
59767;BME280;46248;58.364;25.582;2023-02-21T15:58:14;99987.53;;;-5.20;90.12
59767;BME280;46248;58.364;25.582;2023-02-21T16:01:43;100001.13;;;-5.22;90.22
59767;BME280;46248;58.364;25.582;2023-02-21T16:05:22;99990.84;;;-5.30;90.21
59767;BME280;46248;58.364;25.582;2023-02-21T16:08:54;100007.88;;;-5.27;90.96
59767;BME280;46248;58.364;25.582;2023-02-21T16:12:30;99998.44;;;-5.45;91.38
59767;BME280;46248;58.364;25.582;2023-02-21T16:16:01;100024.88;;;-5.34;90.57
59767;BME280;46248;58.364;25.582;2023-02-21T16:19:31;100029.09;;;-5.41;91.09
59767;BME280;46248;58.364;25.582;2023-02-21T16:23:21;100034.16;;;-5.45;90.94
59767;BME280;46248;58.364;25.582;2023-02-21T16:27:03;100046.94;;;-5.44;90.96
59767;BME280;46248;58.364;25.582;2023-02-21T16:30:30;100057.97;;;-5.42;90.59
59767;BME280;46248;58.364;25.582;2023-02-21T16:33:57;100072.44;;;-5.42;90.60
59767;BME280;46248;58.364;25.582;2023-02-21T16:37:23;100085.22;;;-5.44;90.67
59767;BME280;46248;58.364;25.582;2023-02-21T16:40:49;100061.25;;;-5.63;90.05
59767;BME280;46248;58.364;25.582;2023-02-21T16:44:15;100097.09;;;-5.47;90.36
59767;BME280;46248;58.364;25.582;2023-02-21T16:47:38;100099.66;;;-5.47;90.58
59767;BME280;46248;58.364;25.582;2023-02-21T16:51:11;100112.38;;;-5.49;89.16
59767;BME280;46248;58.364;25.582;2023-02-21T16:54:38;100110.63;;;-5.56;89.71
59767;BME280;46248;58.364;25.582;2023-02-21T16:58:06;100122.56;;;-5.54;89.61
59767;BME280;46248;58.364;25.582;2023-02-21T17:01:31;100125.09;;;-5.57;90.39
59767;BME280;46248;58.364;25.582;2023-02-21T17:04:57;100135.28;;;-5.55;89.53
59767;BME280;46248;58.364;25.582;2023-02-21T17:08:23;100146.34;;;-5.55;89.10
59767;BME280;46248;58.364;25.582;2023-02-21T17:11:49;100142.91;;;-5.60;89.38
59767;BME280;46248;58.364;25.582;2023-02-21T17:15:15;100150.56;;;-5.58;89.02
59767;BME280;46248;58.364;25.582;2023-02-21T17:18:41;100160.78;;;-5.60;89.17
59767;BME280;46248;58.364;25.582;2023-02-21T17:22:07;100160.75;;;-5.61;88.74
59767;BME280;46248;58.364;25.582;2023-02-21T17:25:33;100162.41;;;-5.63;88.82
59767;BME280;46248;58.364;25.582;2023-02-21T17:28:58;100167.53;;;-5.65;88.36
59767;BME280;46248;58.364;25.582;2023-02-21T17:32:26;100175.16;;;-5.68;88.74
59767;BME280;46248;58.364;25.582;2023-02-21T17:35:52;100184.50;;;-5.67;88.65
59767;BME280;46248;58.364;25.582;2023-02-21T17:39:17;100177.69;;;-5.71;88.90
59767;BME280;46248;58.364;25.582;2023-02-21T17:42:44;100181.91;;;-5.73;88.03
59767;BME280;46248;58.364;25.582;2023-02-21T17:46:09;100187.00;;;-5.73;87.99
59767;BME280;46248;58.364;25.582;2023-02-21T17:49:34;100192.13;;;-5.71;87.70
59767;BME280;46248;58.364;25.582;2023-02-21T17:52:59;100195.50;;;-5.72;88.45
59767;BME280;46248;58.364;25.582;2023-02-21T17:56:24;100198.91;;;-5.72;88.40
59767;BME280;46248;58.364;25.582;2023-02-21T17:59:50;100217.59;;;-5.73;88.33
59767;BME280;46248;58.364;25.582;2023-02-21T18:03:14;100220.91;;;-5.82;87.88
59767;BME280;46248;58.364;25.582;2023-02-21T18:06:39;100219.19;;;-5.81;88.40
59767;BME280;46248;58.364;25.582;2023-02-21T18:10:04;100219.97;;;-5.91;88.15
59767;BME280;46248;58.364;25.582;2023-02-21T18:13:29;100225.06;;;-5.94;87.12
59767;BME280;46248;58.364;25.582;2023-02-21T18:16:56;100227.47;;;-6.05;86.73
59767;BME280;46248;58.364;25.582;2023-02-21T18:20:21;100241.88;;;-6.09;88.28
59767;BME280;46248;58.364;25.582;2023-02-21T18:23:46;100269.91;;;-6.09;87.93
59767;BME280;46248;58.364;25.582;2023-02-21T18:27:12;100266.44;;;-6.15;88.10
59767;BME280;46248;58.364;25.582;2023-02-21T18:30:40;100266.41;;;-6.20;86.86
59767;BME280;46248;58.364;25.582;2023-02-21T18:34:08;100271.47;;;-6.23;87.81
59767;BME280;46248;58.364;25.582;2023-02-21T18:37:34;100249.03;;;-6.49;88.04
59767;BME280;46248;58.364;25.582;2023-02-21T18:40:59;100279.81;;;-6.33;87.16
59767;BME280;46248;58.364;25.582;2023-02-21T18:44:25;100284.03;;;-6.34;88.08
59767;BME280;46248;58.364;25.582;2023-02-21T18:47:52;100287.41;;;-6.36;87.27